Terminal Aerodrome Forecast
Issued by NWS Sterling, VA

Current Version | Previous Version | Graphics & Text | Print | Product List | Glossary On
Versions: 1 2 3 4 5 6 7 8 9 10 11 12 13 14 15 16 17 18 19 20 21 22 23 24 25 26 27
000
FTUS41 KLWX 282103 AAA
TAFDCA
TAF AMD
KDCA 282103Z 2821/2918 27015G21KT P6SM BKN050
     FM282200 28014KT P6SM SCT050
     FM290200 29009KT P6SM FEW250
     FM290700 27005KT P6SM SKC=

USA.gov is the U.S. government's official web portal to all federal, state and local government web resources and services.